sensor_id;sensor_type;location;lat;lon;timestamp;temperature;humidity
75170;SHT31;63749;49.186;9.222;2024-03-06T00:01:57;5.65;96.13
75170;SHT31;63749;49.186;9.222;2024-03-06T00:04:22;5.63;96.20
75170;SHT31;63749;49.186;9.222;2024-03-06T00:06:47;5.63;96.35
75170;SHT31;63749;49.186;9.222;2024-03-06T00:09:13;5.58;96.01
75170;SHT31;63749;49.186;9.222;2024-03-06T00:11:38;5.61;95.90
75170;SHT31;63749;49.186;9.222;2024-03-06T00:14:05;5.58;95.80
75170;SHT31;63749;49.186;9.222;2024-03-06T00:16:33;5.53;95.82
75170;SHT31;63749;49.186;9.222;2024-03-06T00:18:59;5.48;96.01
75170;SHT31;63749;49.186;9.222;2024-03-06T00:21:24;5.48;96.02
75170;SHT31;63749;49.186;9.222;2024-03-06T00:23:50;5.44;96.10
75170;SHT31;63749;49.186;9.222;2024-03-06T00:26:15;5.35;95.91
75170;SHT31;63749;49.186;9.222;2024-03-06T00:28:40;5.32;95.99
75170;SHT31;63749;49.186;9.222;2024-03-06T00:31:06;5.26;96.07
75170;SHT31;63749;49.186;9.222;2024-03-06T00:33:31;5.20;96.13
75170;SHT31;63749;49.186;9.222;2024-03-06T00:35:56;5.15;96.08
75170;SHT31;63749;49.186;9.222;2024-03-06T00:38:22;5.16;96.26
75170;SHT31;63749;49.186;9.222;2024-03-06T00:40:48;5.18;96.27
75170;SHT31;63749;49.186;9.222;2024-03-06T00:43:13;5.18;96.38
75170;SHT31;63749;49.186;9.222;2024-03-06T00:45:38;5.13;96.40
75170;SHT31;63749;49.186;9.222;2024-03-06T00:48:04;5.11;96.36
75170;SHT31;63749;49.186;9.222;2024-03-06T00:50:29;5.11;96.41
75170;SHT31;63749;49.186;9.222;2024-03-06T00:52:54;5.12;96.55
75170;SHT31;63749;49.186;9.222;2024-03-06T00:55:20;5.15;96.59
75170;SHT31;63749;49.186;9.222;2024-03-06T00:57:45;5.18;96.51
75170;SHT31;63749;49.186;9.222;2024-03-06T01:00:11;5.18;96.50
75170;SHT31;63749;49.186;9.222;2024-03-06T01:02:37;5.15;96.49
75170;SHT31;63749;49.186;9.222;2024-03-06T01:05:03;5.19;96.65
75170;SHT31;63749;49.186;9.222;2024-03-06T01:07:29;5.19;96.72
75170;SHT31;63749;49.186;9.222;2024-03-06T01:09:55;5.20;96.70
75170;SHT31;63749;49.186;9.222;2024-03-06T01:12:22;5.19;96.62
75170;SHT31;63749;49.186;9.222;2024-03-06T01:14:48;5.20;96.64
75170;SHT31;63749;49.186;9.222;2024-03-06T01:17:13;5.20;96.60
75170;SHT31;63749;49.186;9.222;2024-03-06T01:19:39;5.19;96.62
75170;SHT31;63749;49.186;9.222;2024-03-06T01:22:04;5.18;97.12
75170;SHT31;63749;49.186;9.222;2024-03-06T01:24:29;5.13;97.12
75170;SHT31;63749;49.186;9.222;2024-03-06T01:26:55;5.12;97.56
75170;SHT31;63749;49.186;9.222;2024-03-06T01:29:20;5.05;97.51
75170;SHT31;63749;49.186;9.222;2024-03-06T01:31:45;5.02;97.45
75170;SHT31;63749;49.186;9.222;2024-03-06T01:34:12;4.99;97.60
75170;SHT31;63749;49.186;9.222;2024-03-06T01:36:37;4.98;97.69
75170;SHT31;63749;49.186;9.222;2024-03-06T01:39:02;4.91;97.75
75170;SHT31;63749;49.186;9.222;2024-03-06T01:41:28;4.84;97.67
75170;SHT31;63749;49.186;9.222;2024-03-06T01:43:53;4.81;97.63
75170;SHT31;63749;49.186;9.222;2024-03-06T01:46:19;4.76;97.78
75170;SHT31;63749;49.186;9.222;2024-03-06T01:48:44;4.71;97.92
75170;SHT31;63749;49.186;9.222;2024-03-06T01:51:10;4.69;97.84
75170;SHT31;63749;49.186;9.222;2024-03-06T01:53:35;4.67;98.15
75170;SHT31;63749;49.186;9.222;2024-03-06T01:56:02;4.61;98.13
75170;SHT31;63749;49.186;9.222;2024-03-06T01:58:29;4.55;98.19
75170;SHT31;63749;49.186;9.222;2024-03-06T02:00:56;4.48;98.38
75170;SHT31;63749;49.186;9.222;2024-03-06T02:03:22;4.47;98.66
75170;SHT31;63749;49.186;9.222;2024-03-06T02:05:51;4.47;98.41
75170;SHT31;63749;49.186;9.222;2024-03-06T02:08:18;4.47;98.36
75170;SHT31;63749;49.186;9.222;2024-03-06T02:10:46;4.47;98.45
75170;SHT31;63749;49.186;9.222;2024-03-06T02:13:13;4.40;98.49
75170;SHT31;63749;49.186;9.222;2024-03-06T02:15:38;4.41;98.65
75170;SHT31;63749;49.186;9.222;2024-03-06T02:18:05;4.37;98.57
75170;SHT31;63749;49.186;9.222;2024-03-06T02:20:31;4.37;98.75
75170;SHT31;63749;49.186;9.222;2024-03-06T02:22:56;4.36;98.64
75170;SHT31;63749;49.186;9.222;2024-03-06T02:25:21;4.33;98.80
75170;SHT31;63749;49.186;9.222;2024-03-06T02:27:47;4.37;99.01
75170;SHT31;63749;49.186;9.222;2024-03-06T02:30:19;4.37;98.96
75170;SHT31;63749;49.186;9.222;2024-03-06T02:32:46;4.40;99.00
75170;SHT31;63749;49.186;9.222;2024-03-06T02:35:11;4.33;98.85
75170;SHT31;63749;49.186;9.222;2024-03-06T02:37:37;4.33;98.89
75170;SHT31;63749;49.186;9.222;2024-03-06T02:40:03;4.29;98.89
75170;SHT31;63749;49.186;9.222;2024-03-06T02:42:32;4.30;98.92
75170;SHT31;63749;49.186;9.222;2024-03-06T02:44:57;4.29;98.98
75170;SHT31;63749;49.186;9.222;2024-03-06T02:47:23;4.24;99.05
75170;SHT31;63749;49.186;9.222;2024-03-06T02:49:48;4.21;98.83
75170;SHT31;63749;49.186;9.222;2024-03-06T02:52:14;4.16;98.72
75170;SHT31;63749;49.186;9.222;2024-03-06T02:54:41;4.13;98.65
75170;SHT31;63749;49.186;9.222;2024-03-06T02:57:06;4.13;98.71
75170;SHT31;63749;49.186;9.222;2024-03-06T02:59:32;4.13;98.72
75170;SHT31;63749;49.186;9.222;2024-03-06T03:01:57;4.10;98.66
75170;SHT31;63749;49.186;9.222;2024-03-06T03:04:23;4.13;98.81
75170;SHT31;63749;49.186;9.222;2024-03-06T03:06:48;4.17;98.86
75170;SHT31;63749;49.186;9.222;2024-03-06T03:09:13;4.23;98.84
75170;SHT31;63749;49.186;9.222;2024-03-06T03:11:39;4.24;98.78
75170;SHT31;63749;49.186;9.222;2024-03-06T03:14:04;4.26;98.70
75170;SHT31;63749;49.186;9.222;2024-03-06T03:16:29;4.32;98.84
75170;SHT31;63749;49.186;9.222;2024-03-06T03:18:57;4.36;98.83
75170;SHT31;63749;49.186;9.222;2024-03-06T03:21:23;4.41;98.82
75170;SHT31;63749;49.186;9.222;2024-03-06T03:23:48;4.43;98.90
75170;SHT31;63749;49.186;9.222;2024-03-06T03:26:15;4.48;98.90
75170;SHT31;63749;49.186;9.222;2024-03-06T03:28:40;4.53;98.96
75170;SHT31;63749;49.186;9.222;2024-03-06T03:31:07;4.57;98.93
75170;SHT31;63749;49.186;9.222;2024-03-06T03:33:40;4.58;99.05
75170;SHT31;63749;49.186;9.222;2024-03-06T03:36:06;4.60;98.92
75170;SHT31;63749;49.186;9.222;2024-03-06T03:38:33;4.61;99.04
75170;SHT31;63749;49.186;9.222;2024-03-06T03:41:01;4.58;98.95
75170;SHT31;63749;49.186;9.222;2024-03-06T03:43:26;4.61;98.94
75170;SHT31;63749;49.186;9.222;2024-03-06T03:45:51;4.64;98.95
75170;SHT31;63749;49.186;9.222;2024-03-06T03:48:17;4.65;98.98
75170;SHT31;63749;49.186;9.222;2024-03-06T03:50:42;4.67;98.84
75170;SHT31;63749;49.186;9.222;2024-03-06T03:53:07;4.65;98.91
75170;SHT31;63749;49.186;9.222;2024-03-06T03:55:33;4.68;98.89
75170;SHT31;63749;49.186;9.222;2024-03-06T03:57:58;4.69;98.94
75170;SHT31;63749;49.186;9.222;2024-03-06T04:00:24;4.72;98.93
75170;SHT31;63749;49.186;9.222;2024-03-06T04:02:49;4.74;98.85
75170;SHT31;63749;49.186;9.222;2024-03-06T04:05:15;4.76;98.83
75170;SHT31;63749;49.186;9.222;2024-03-06T04:07:40;4.78;98.73
75170;SHT31;63749;49.186;9.222;2024-03-06T04:10:06;4.72;98.71
75170;SHT31;63749;49.186;9.222;2024-03-06T04:12:32;4.72;98.70
75170;SHT31;63749;49.186;9.222;2024-03-06T04:14:57;4.69;98.66
75170;SHT31;63749;49.186;9.222;2024-03-06T04:17:23;4.69;98.64
75170;SHT31;63749;49.186;9.222;2024-03-06T04:19:49;4.72;98.88
75170;SHT31;63749;49.186;9.222;2024-03-06T04:22:18;4.74;98.68
75170;SHT31;63749;49.186;9.222;2024-03-06T04:24:44;4.76;98.69
75170;SHT31;63749;49.186;9.222;2024-03-06T04:27:10;4.75;98.55
75170;SHT31;63749;49.186;9.222;2024-03-06T04:29:35;4.78;98.55
75170;SHT31;63749;49.186;9.222;2024-03-06T04:32:01;4.79;98.51
75170;SHT31;63749;49.186;9.222;2024-03-06T04:34:26;4.78;98.53
75170;SHT31;63749;49.186;9.222;2024-03-06T04:36:51;4.79;98.51
75170;SHT31;63749;49.186;9.222;2024-03-06T04:39:17;4.78;98.47
75170;SHT31;63749;49.186;9.222;2024-03-06T04:41:42;4.81;98.41
75170;SHT31;63749;49.186;9.222;2024-03-06T04:44:07;4.78;98.46
75170;SHT31;63749;49.186;9.222;2024-03-06T04:46:33;4.76;98.43
75170;SHT31;63749;49.186;9.222;2024-03-06T04:48:58;4.74;98.38
75170;SHT31;63749;49.186;9.222;2024-03-06T04:51:24;4.76;98.37
75170;SHT31;63749;49.186;9.222;2024-03-06T04:53:49;4.72;98.45
75170;SHT31;63749;49.186;9.222;2024-03-06T04:56:14;4.78;98.44
75170;SHT31;63749;49.186;9.222;2024-03-06T04:58:41;4.75;98.36
75170;SHT31;63749;49.186;9.222;2024-03-06T05:01:06;4.78;98.40
75170;SHT31;63749;49.186;9.222;2024-03-06T05:03:32;4.78;98.50
75170;SHT31;63749;49.186;9.222;2024-03-06T05:05:57;4.81;98.51
75170;SHT31;63749;49.186;9.222;2024-03-06T05:08:22;4.82;98.57
75170;SHT31;63749;49.186;9.222;2024-03-06T05:10:48;4.81;98.52
75170;SHT31;63749;49.186;9.222;2024-03-06T05:13:13;4.78;98.51
75170;SHT31;63749;49.186;9.222;2024-03-06T05:15:39;4.81;98.56
75170;SHT31;63749;49.186;9.222;2024-03-06T05:18:05;4.79;98.43
75170;SHT31;63749;49.186;9.222;2024-03-06T05:20:30;4.75;98.48
75170;SHT31;63749;49.186;9.222;2024-03-06T05:22:58;4.79;98.38
75170;SHT31;63749;49.186;9.222;2024-03-06T05:25:24;4.75;98.49
75170;SHT31;63749;49.186;9.222;2024-03-06T05:27:50;4.75;98.58
75170;SHT31;63749;49.186;9.222;2024-03-06T05:30:15;4.78;98.52
75170;SHT31;63749;49.186;9.222;2024-03-06T05:32:41;4.78;98.51
75170;SHT31;63749;49.186;9.222;2024-03-06T05:35:07;4.84;98.53
75170;SHT31;63749;49.186;9.222;2024-03-06T05:37:37;4.85;98.52
75170;SHT31;63749;49.186;9.222;2024-03-06T05:40:02;4.86;98.55
75170;SHT31;63749;49.186;9.222;2024-03-06T05:42:30;4.93;98.50
75170;SHT31;63749;49.186;9.222;2024-03-06T05:44:56;4.96;98.34
75170;SHT31;63749;49.186;9.222;2024-03-06T05:47:25;4.96;98.25
75170;SHT31;63749;49.186;9.222;2024-03-06T05:49:51;4.99;98.40
75170;SHT31;63749;49.186;9.222;2024-03-06T05:52:17;5.02;98.25
75170;SHT31;63749;49.186;9.222;2024-03-06T05:54:42;5.08;98.22
75170;SHT31;63749;49.186;9.222;2024-03-06T05:57:07;5.12;98.16
75170;SHT31;63749;49.186;9.222;2024-03-06T05:59:33;5.13;98.17
75170;SHT31;63749;49.186;9.222;2024-03-06T06:01:58;5.15;98.05
75170;SHT31;63749;49.186;9.222;2024-03-06T06:04:23;5.13;98.05
75170;SHT31;63749;49.186;9.222;2024-03-06T06:06:49;5.13;98.02
75170;SHT31;63749;49.186;9.222;2024-03-06T06:09:14;5.12;97.98
75170;SHT31;63749;49.186;9.222;2024-03-06T06:11:41;5.15;97.88
75170;SHT31;63749;49.186;9.222;2024-03-06T06:14:07;5.13;97.97
75170;SHT31;63749;49.186;9.222;2024-03-06T06:16:37;5.11;97.73
75170;SHT31;63749;49.186;9.222;2024-03-06T06:19:03;5.09;97.72
75170;SHT31;63749;49.186;9.222;2024-03-06T06:21:29;5.08;97.87
75170;SHT31;63749;49.186;9.222;2024-03-06T06:23:54;5.15;98.00
75170;SHT31;63749;49.186;9.222;2024-03-06T06:26:19;5.18;97.85
75170;SHT31;63749;49.186;9.222;2024-03-06T06:28:45;5.25;97.74
75170;SHT31;63749;49.186;9.222;2024-03-06T06:31:11;5.29;98.03
75170;SHT31;63749;49.186;9.222;2024-03-06T06:33:37;5.39;97.79
75170;SHT31;63749;49.186;9.222;2024-03-06T06:36:02;5.40;97.54
75170;SHT31;63749;49.186;9.222;2024-03-06T06:38:27;5.50;97.53
75170;SHT31;63749;49.186;9.222;2024-03-06T06:40:53;5.48;97.40
75170;SHT31;63749;49.186;9.222;2024-03-06T06:43:18;5.51;97.33
75170;SHT31;63749;49.186;9.222;2024-03-06T06:45:44;5.57;97.18
75170;SHT31;63749;49.186;9.222;2024-03-06T06:48:09;5.56;97.15
75170;SHT31;63749;49.186;9.222;2024-03-06T06:50:35;5.56;96.95
75170;SHT31;63749;49.186;9.222;2024-03-06T06:53:00;5.54;97.16
75170;SHT31;63749;49.186;9.222;2024-03-06T06:55:26;5.56;97.14
75170;SHT31;63749;49.186;9.222;2024-03-06T06:57:52;5.61;97.03
75170;SHT31;63749;49.186;9.222;2024-03-06T07:00:17;5.64;97.00
75170;SHT31;63749;49.186;9.222;2024-03-06T07:02:44;5.70;96.84
75170;SHT31;63749;49.186;9.222;2024-03-06T07:05:10;5.75;97.03
75170;SHT31;63749;49.186;9.222;2024-03-06T07:07:36;5.83;96.73
75170;SHT31;63749;49.186;9.222;2024-03-06T07:10:03;5.83;96.76
75170;SHT31;63749;49.186;9.222;2024-03-06T07:12:29;5.84;96.46
75170;SHT31;63749;49.186;9.222;2024-03-06T07:14:54;5.88;96.64
75170;SHT31;63749;49.186;9.222;2024-03-06T07:17:20;5.93;96.63
75170;SHT31;63749;49.186;9.222;2024-03-06T07:19:45;6.01;96.40
75170;SHT31;63749;49.186;9.222;2024-03-06T07:22:10;6.01;96.22
75170;SHT31;63749;49.186;9.222;2024-03-06T07:24:36;5.99;96.34
75170;SHT31;63749;49.186;9.222;2024-03-06T07:27:02;6.01;96.33
75170;SHT31;63749;49.186;9.222;2024-03-06T07:29:27;6.02;96.19
75170;SHT31;63749;49.186;9.222;2024-03-06T07:31:53;6.09;96.24
75170;SHT31;63749;49.186;9.222;2024-03-06T07:34:19;6.11;96.07
75170;SHT31;63749;49.186;9.222;2024-03-06T07:36:45;6.16;95.87
75170;SHT31;63749;49.186;9.222;2024-03-06T07:39:11;6.19;95.99
75170;SHT31;63749;49.186;9.222;2024-03-06T07:41:37;6.19;95.89
75170;SHT31;63749;49.186;9.222;2024-03-06T07:44:03;6.25;96.00
75170;SHT31;63749;49.186;9.222;2024-03-06T07:46:28;6.30;95.87
75170;SHT31;63749;49.186;9.222;2024-03-06T07:48:53;6.30;95.58
75170;SHT31;63749;49.186;9.222;2024-03-06T07:51:20;6.35;95.82
75170;SHT31;63749;49.186;9.222;2024-03-06T07:53:45;6.37;95.32
75170;SHT31;63749;49.186;9.222;2024-03-06T07:56:11;6.45;95.61
75170;SHT31;63749;49.186;9.222;2024-03-06T07:58:37;6.47;95.39
75170;SHT31;63749;49.186;9.222;2024-03-06T08:01:03;6.58;95.69
75170;SHT31;63749;49.186;9.222;2024-03-06T08:03:28;6.64;95.62
75170;SHT31;63749;49.186;9.222;2024-03-06T08:05:54;6.69;95.13
75170;SHT31;63749;49.186;9.222;2024-03-06T08:08:20;6.73;94.69
75170;SHT31;63749;49.186;9.222;2024-03-06T08:10:45;6.74;95.15
75170;SHT31;63749;49.186;9.222;2024-03-06T08:13:11;6.80;94.97
75170;SHT31;63749;49.186;9.222;2024-03-06T08:15:36;6.90;94.26
75170;SHT31;63749;49.186;9.222;2024-03-06T08:18:02;6.97;94.61
75170;SHT31;63749;49.186;9.222;2024-03-06T08:20:28;6.98;93.98
75170;SHT31;63749;49.186;9.222;2024-03-06T08:22:55;7.07;94.07
75170;SHT31;63749;49.186;9.222;2024-03-06T08:25:21;7.14;94.13
75170;SHT31;63749;49.186;9.222;2024-03-06T08:27:47;7.19;93.92
75170;SHT31;63749;49.186;9.222;2024-03-06T08:30:12;7.24;93.55
75170;SHT31;63749;49.186;9.222;2024-03-06T08:32:38;7.25;93.42
75170;SHT31;63749;49.186;9.222;2024-03-06T08:35:04;7.32;93.46
75170;SHT31;63749;49.186;9.222;2024-03-06T08:37:36;7.36;93.76
75170;SHT31;63749;49.186;9.222;2024-03-06T08:40:02;7.39;92.94
75170;SHT31;63749;49.186;9.222;2024-03-06T08:42:28;7.42;93.09
75170;SHT31;63749;49.186;9.222;2024-03-06T08:44:54;7.46;92.44
75170;SHT31;63749;49.186;9.222;2024-03-06T08:47:19;7.48;92.95
75170;SHT31;63749;49.186;9.222;2024-03-06T08:49:45;7.45;93.40
75170;SHT31;63749;49.186;9.222;2024-03-06T08:52:10;7.52;92.72
75170;SHT31;63749;49.186;9.222;2024-03-06T08:54:36;7.58;92.47
75170;SHT31;63749;49.186;9.222;2024-03-06T08:57:02;7.66;92.34
75170;SHT31;63749;49.186;9.222;2024-03-06T08:59:28;7.72;91.64
75170;SHT31;63749;49.186;9.222;2024-03-06T09:01:54;7.73;91.74
75170;SHT31;63749;49.186;9.222;2024-03-06T09:04:21;7.67;92.14
75170;SHT31;63749;49.186;9.222;2024-03-06T09:06:47;7.67;92.36
75170;SHT31;63749;49.186;9.222;2024-03-06T09:09:14;7.67;92.07
75170;SHT31;63749;49.186;9.222;2024-03-06T09:11:40;7.59;92.55
75170;SHT31;63749;49.186;9.222;2024-03-06T09:14:07;7.66;92.94
75170;SHT31;63749;49.186;9.222;2024-03-06T09:16:32;7.67;93.14
75170;SHT31;63749;49.186;9.222;2024-03-06T09:18:57;7.72;92.40
75170;SHT31;63749;49.186;9.222;2024-03-06T09:21:23;7.77;92.22
75170;SHT31;63749;49.186;9.222;2024-03-06T09:23:48;7.82;92.75
75170;SHT31;63749;49.186;9.222;2024-03-06T09:26:16;8.01;92.38
75170;SHT31;63749;49.186;9.222;2024-03-06T09:28:42;8.10;92.44
75170;SHT31;63749;49.186;9.222;2024-03-06T09:31:07;8.18;92.65
75170;SHT31;63749;49.186;9.222;2024-03-06T09:33:33;8.23;92.13
75170;SHT31;63749;49.186;9.222;2024-03-06T09:35:59;8.11;92.41
75170;SHT31;63749;49.186;9.222;2024-03-06T09:38:24;8.25;92.46
75170;SHT31;63749;49.186;9.222;2024-03-06T09:40:50;8.27;92.67
75170;SHT31;63749;49.186;9.222;2024-03-06T09:43:16;8.24;92.67
75170;SHT31;63749;49.186;9.222;2024-03-06T09:45:45;8.35;92.66
75170;SHT31;63749;49.186;9.222;2024-03-06T09:48:11;8.37;93.01
75170;SHT31;63749;49.186;9.222;2024-03-06T09:50:38;8.48;93.38
75170;SHT31;63749;49.186;9.222;2024-03-06T09:53:09;8.54;92.69
75170;SHT31;63749;49.186;9.222;2024-03-06T09:55:35;8.49;92.30
75170;SHT31;63749;49.186;9.222;2024-03-06T09:58:02;8.40;92.05
75170;SHT31;63749;49.186;9.222;2024-03-06T10:00:30;8.35;92.49
75170;SHT31;63749;49.186;9.222;2024-03-06T10:02:58;8.33;92.49
75170;SHT31;63749;49.186;9.222;2024-03-06T10:05:25;8.34;92.64
75170;SHT31;63749;49.186;9.222;2024-03-06T10:07:51;8.40;92.78
75170;SHT31;63749;49.186;9.222;2024-03-06T10:10:18;8.35;92.89
75170;SHT31;63749;49.186;9.222;2024-03-06T10:12:47;8.42;93.26
75170;SHT31;63749;49.186;9.222;2024-03-06T10:15:15;8.55;93.47
75170;SHT31;63749;49.186;9.222;2024-03-06T10:17:41;8.62;93.04
75170;SHT31;63749;49.186;9.222;2024-03-06T10:20:23;8.54;92.90
75170;SHT31;63749;49.186;9.222;2024-03-06T10:22:53;8.62;92.38
75170;SHT31;63749;49.186;9.222;2024-03-06T10:25:22;8.71;92.73
75170;SHT31;63749;49.186;9.222;2024-03-06T10:28:08;8.73;92.62
75170;SHT31;63749;49.186;9.222;2024-03-06T10:30:35;8.79;92.12
75170;SHT31;63749;49.186;9.222;2024-03-06T10:33:04;8.76;92.18
75170;SHT31;63749;49.186;9.222;2024-03-06T10:35:34;8.84;92.44
75170;SHT31;63749;49.186;9.222;2024-03-06T10:38:01;8.80;92.92
75170;SHT31;63749;49.186;9.222;2024-03-06T10:40:32;8.82;92.91
75170;SHT31;63749;49.186;9.222;2024-03-06T10:43:02;8.77;92.44
75170;SHT31;63749;49.186;9.222;2024-03-06T10:48:08;8.69;92.45
75170;SHT31;63749;49.186;9.222;2024-03-06T10:50:39;8.69;92.72
75170;SHT31;63749;49.186;9.222;2024-03-06T10:53:08;8.65;93.13
75170;SHT31;63749;49.186;9.222;2024-03-06T10:55:35;8.66;92.82
75170;SHT31;63749;49.186;9.222;2024-03-06T10:58:04;8.71;92.80
75170;SHT31;63749;49.186;9.222;2024-03-06T11:00:30;8.66;92.89
75170;SHT31;63749;49.186;9.222;2024-03-06T11:02:56;8.66;93.22
75170;SHT31;63749;49.186;9.222;2024-03-06T11:05:23;8.71;93.35
75170;SHT31;63749;49.186;9.222;2024-03-06T11:07:50;8.79;93.17
75170;SHT31;63749;49.186;9.222;2024-03-06T11:10:30;8.76;92.72
75170;SHT31;63749;49.186;9.222;2024-03-06T11:12:55;8.76;92.37
75170;SHT31;63749;49.186;9.222;2024-03-06T11:15:21;8.80;92.93
75170;SHT31;63749;49.186;9.222;2024-03-06T11:17:47;8.73;92.16
75170;SHT31;63749;49.186;9.222;2024-03-06T11:20:15;8.71;92.10
75170;SHT31;63749;49.186;9.222;2024-03-06T11:28:22;8.68;92.71
75170;SHT31;63749;49.186;9.222;2024-03-06T11:33:18;8.65;93.42
75170;SHT31;63749;49.186;9.222;2024-03-06T11:39:02;8.77;92.86
75170;SHT31;63749;49.186;9.222;2024-03-06T11:41:51;8.75;92.78
75170;SHT31;63749;49.186;9.222;2024-03-06T11:44:21;8.71;93.50
75170;SHT31;63749;49.186;9.222;2024-03-06T11:49:20;8.71;92.88
75170;SHT31;63749;49.186;9.222;2024-03-06T11:51:52;8.62;93.21
75170;SHT31;63749;49.186;9.222;2024-03-06T11:54:18;8.58;94.07
75170;SHT31;63749;49.186;9.222;2024-03-06T11:56:48;8.56;93.40
75170;SHT31;63749;49.186;9.222;2024-03-06T11:59:15;8.46;93.67
75170;SHT31;63749;49.186;9.222;2024-03-06T12:01:41;8.45;94.60
75170;SHT31;63749;49.186;9.222;2024-03-06T12:04:07;8.44;93.86
75170;SHT31;63749;49.186;9.222;2024-03-06T12:06:32;8.45;94.41
75170;SHT31;63749;49.186;9.222;2024-03-06T12:08:58;8.45;94.15
75170;SHT31;63749;49.186;9.222;2024-03-06T12:11:24;8.46;94.53
75170;SHT31;63749;49.186;9.222;2024-03-06T12:13:54;8.45;94.59
75170;SHT31;63749;49.186;9.222;2024-03-06T12:16:19;8.45;94.81
75170;SHT31;63749;49.186;9.222;2024-03-06T12:18:45;8.46;94.58
75170;SHT31;63749;49.186;9.222;2024-03-06T12:21:11;8.45;94.62
75170;SHT31;63749;49.186;9.222;2024-03-06T12:23:36;8.42;94.74
75170;SHT31;63749;49.186;9.222;2024-03-06T12:26:03;8.40;94.95
75170;SHT31;63749;49.186;9.222;2024-03-06T12:28:29;8.42;95.09
75170;SHT31;63749;49.186;9.222;2024-03-06T12:30:54;8.41;95.30
75170;SHT31;63749;49.186;9.222;2024-03-06T12:33:19;8.40;95.46
75170;SHT31;63749;49.186;9.222;2024-03-06T12:35:45;8.41;95.76
75170;SHT31;63749;49.186;9.222;2024-03-06T12:38:15;8.42;95.79
75170;SHT31;63749;49.186;9.222;2024-03-06T12:40:41;8.40;95.62
75170;SHT31;63749;49.186;9.222;2024-03-06T12:43:07;8.45;95.81
75170;SHT31;63749;49.186;9.222;2024-03-06T12:45:34;8.48;95.93
75170;SHT31;63749;49.186;9.222;2024-03-06T12:47:59;8.48;95.86
75170;SHT31;63749;49.186;9.222;2024-03-06T12:50:24;8.48;95.60
75170;SHT31;63749;49.186;9.222;2024-03-06T12:52:50;8.48;95.60
75170;SHT31;63749;49.186;9.222;2024-03-06T12:55:17;8.52;95.89
75170;SHT31;63749;49.186;9.222;2024-03-06T12:57:42;8.54;95.55
75170;SHT31;63749;49.186;9.222;2024-03-06T13:00:08;8.56;95.79
75170;SHT31;63749;49.186;9.222;2024-03-06T13:02:45;8.55;95.51
75170;SHT31;63749;49.186;9.222;2024-03-06T13:05:11;8.59;95.51
75170;SHT31;63749;49.186;9.222;2024-03-06T13:07:37;8.56;95.42
75170;SHT31;63749;49.186;9.222;2024-03-06T13:10:03;8.55;95.59
75170;SHT31;63749;49.186;9.222;2024-03-06T13:12:28;8.62;95.42
75170;SHT31;63749;49.186;9.222;2024-03-06T13:14:54;8.59;95.43
75170;SHT31;63749;49.186;9.222;2024-03-06T13:17:19;8.66;95.69
75170;SHT31;63749;49.186;9.222;2024-03-06T13:19:44;8.68;95.31
75170;SHT31;63749;49.186;9.222;2024-03-06T13:22:10;8.73;95.54
75170;SHT31;63749;49.186;9.222;2024-03-06T13:24:35;8.69;94.70
75170;SHT31;63749;49.186;9.222;2024-03-06T13:27:01;8.80;95.06
75170;SHT31;63749;49.186;9.222;2024-03-06T13:29:26;8.87;94.36
75170;SHT31;63749;49.186;9.222;2024-03-06T13:31:52;8.92;94.26
75170;SHT31;63749;49.186;9.222;2024-03-06T13:34:17;9.02;94.19
75170;SHT31;63749;49.186;9.222;2024-03-06T13:36:42;9.06;92.97
75170;SHT31;63749;49.186;9.222;2024-03-06T13:39:09;9.12;93.07
75170;SHT31;63749;49.186;9.222;2024-03-06T13:41:34;9.09;92.74
75170;SHT31;63749;49.186;9.222;2024-03-06T13:43:59;9.12;92.90
75170;SHT31;63749;49.186;9.222;2024-03-06T13:46:25;9.07;92.30
75170;SHT31;63749;49.186;9.222;2024-03-06T13:48:50;9.04;92.97
75170;SHT31;63749;49.186;9.222;2024-03-06T13:51:16;9.02;93.64
75170;SHT31;63749;49.186;9.222;2024-03-06T13:53:41;8.90;94.18
75170;SHT31;63749;49.186;9.222;2024-03-06T13:56:07;8.87;94.41
75170;SHT31;63749;49.186;9.222;2024-03-06T13:58:33;8.84;94.55
75170;SHT31;63749;49.186;9.222;2024-03-06T14:00:58;8.77;94.93
75170;SHT31;63749;49.186;9.222;2024-03-06T14:03:24;8.75;94.99
75170;SHT31;63749;49.186;9.222;2024-03-06T14:05:51;8.82;95.04
75170;SHT31;63749;49.186;9.222;2024-03-06T14:08:16;8.83;94.88
75170;SHT31;63749;49.186;9.222;2024-03-06T14:10:42;8.80;94.92
75170;SHT31;63749;49.186;9.222;2024-03-06T14:13:07;8.84;94.86
75170;SHT31;63749;49.186;9.222;2024-03-06T14:15:34;8.93;94.54
75170;SHT31;63749;49.186;9.222;2024-03-06T14:17:59;9.00;94.44
75170;SHT31;63749;49.186;9.222;2024-03-06T14:20:26;9.13;94.37
75170;SHT31;63749;49.186;9.222;2024-03-06T14:22:52;9.19;94.30
75170;SHT31;63749;49.186;9.222;2024-03-06T14:25:18;9.22;94.15
75170;SHT31;63749;49.186;9.222;2024-03-06T14:27:43;9.27;94.43
75170;SHT31;63749;49.186;9.222;2024-03-06T14:30:09;9.31;93.77
75170;SHT31;63749;49.186;9.222;2024-03-06T14:32:37;9.26;93.99
75170;SHT31;63749;49.186;9.222;2024-03-06T14:35:03;9.30;94.33
75170;SHT31;63749;49.186;9.222;2024-03-06T14:37:28;9.31;94.51
75170;SHT31;63749;49.186;9.222;2024-03-06T14:39:54;9.28;94.39
75170;SHT31;63749;49.186;9.222;2024-03-06T14:42:19;9.28;94.76
75170;SHT31;63749;49.186;9.222;2024-03-06T14:44:45;9.23;94.86
75170;SHT31;63749;49.186;9.222;2024-03-06T14:47:11;9.16;94.49
75170;SHT31;63749;49.186;9.222;2024-03-06T14:49:37;9.12;94.43
75170;SHT31;63749;49.186;9.222;2024-03-06T14:52:03;9.16;94.15
75170;SHT31;63749;49.186;9.222;2024-03-06T14:54:28;9.20;94.09
75170;SHT31;63749;49.186;9.222;2024-03-06T14:56:54;9.26;94.29
75170;SHT31;63749;49.186;9.222;2024-03-06T14:59:20;9.23;94.28
75170;SHT31;63749;49.186;9.222;2024-03-06T15:01:46;9.24;93.98
75170;SHT31;63749;49.186;9.222;2024-03-06T15:04:13;9.23;93.78
75170;SHT31;63749;49.186;9.222;2024-03-06T15:06:38;9.22;93.74
75170;SHT31;63749;49.186;9.222;2024-03-06T15:09:04;9.30;93.53
75170;SHT31;63749;49.186;9.222;2024-03-06T15:11:37;9.33;93.55
75170;SHT31;63749;49.186;9.222;2024-03-06T15:14:02;9.40;93.40
75170;SHT31;63749;49.186;9.222;2024-03-06T15:16:28;9.47;93.25
75170;SHT31;63749;49.186;9.222;2024-03-06T15:18:54;9.52;92.70
75170;SHT31;63749;49.186;9.222;2024-03-06T15:21:22;9.51;92.44
75170;SHT31;63749;49.186;9.222;2024-03-06T15:23:48;9.54;91.88
75170;SHT31;63749;49.186;9.222;2024-03-06T15:26:15;9.57;92.52
75170;SHT31;63749;49.186;9.222;2024-03-06T15:28:41;9.58;92.15
75170;SHT31;63749;49.186;9.222;2024-03-06T15:31:06;9.54;92.72
75170;SHT31;63749;49.186;9.222;2024-03-06T15:33:31;9.51;92.67
75170;SHT31;63749;49.186;9.222;2024-03-06T15:35:58;9.52;92.48
75170;SHT31;63749;49.186;9.222;2024-03-06T15:38:25;9.52;92.42
75170;SHT31;63749;49.186;9.222;2024-03-06T15:40:54;9.55;92.43
75170;SHT31;63749;49.186;9.222;2024-03-06T15:43:20;9.59;92.33
75170;SHT31;63749;49.186;9.222;2024-03-06T15:45:45;9.58;92.37
75170;SHT31;63749;49.186;9.222;2024-03-06T15:48:11;9.58;92.99
75170;SHT31;63749;49.186;9.222;2024-03-06T15:50:42;9.64;92.63
75170;SHT31;63749;49.186;9.222;2024-03-06T15:53:08;9.61;92.50
75170;SHT31;63749;49.186;9.222;2024-03-06T15:55:34;9.61;92.08